sensor_id;sensor_type;location;lat;lon;timestamp;P1;durP1;ratioP1;P2;durP2;ratioP2
69573;SDS011;62840;52.366;5.980;2024-01-06T00:01:12;11.85;;;5.15;;
69573;SDS011;62840;52.366;5.980;2024-01-06T00:03:39;11.13;;;4.78;;
69573;SDS011;62840;52.366;5.980;2024-01-06T00:06:05;10.95;;;4.85;;
69573;SDS011;62840;52.366;5.980;2024-01-06T00:08:32;10.88;;;4.85;;
69573;SDS011;62840;52.366;5.980;2024-01-06T00:10:57;11.10;;;5.00;;
69573;SDS011;62840;52.366;5.980;2024-01-06T00:13:23;12.30;;;4.97;;
69573;SDS011;62840;52.366;5.980;2024-01-06T00:15:52;12.30;;;5.47;;
69573;SDS011;62840;52.366;5.980;2024-01-06T00:18:17;11.82;;;5.00;;
69573;SDS011;62840;52.366;5.980;2024-01-06T00:20:43;13.27;;;5.75;;
69573;SDS011;62840;52.366;5.980;2024-01-06T00:23:09;11.57;;;5.50;;
69573;SDS011;62840;52.366;5.980;2024-01-06T00:25:35;12.82;;;5.32;;
69573;SDS011;62840;52.366;5.980;2024-01-06T00:28:01;11.68;;;5.38;;
69573;SDS011;62840;52.366;5.980;2024-01-06T00:30:27;10.23;;;4.73;;
69573;SDS011;62840;52.366;5.980;2024-01-06T00:32:56;12.52;;;5.35;;
69573;SDS011;62840;52.366;5.980;2024-01-06T00:35:21;10.90;;;5.00;;
69573;SDS011;62840;52.366;5.980;2024-01-06T00:37:47;10.77;;;5.25;;
69573;SDS011;62840;52.366;5.980;2024-01-06T00:40:13;11.47;;;5.07;;
69573;SDS011;62840;52.366;5.980;2024-01-06T00:42:39;11.23;;;5.20;;
69573;SDS011;62840;52.366;5.980;2024-01-06T00:45:06;12.30;;;5.22;;
69573;SDS011;62840;52.366;5.980;2024-01-06T00:47:33;10.07;;;4.43;;
69573;SDS011;62840;52.366;5.980;2024-01-06T00:50:01;10.35;;;4.65;;
69573;SDS011;62840;52.366;5.980;2024-01-06T00:52:28;11.25;;;4.95;;
69573;SDS011;62840;52.366;5.980;2024-01-06T00:54:54;12.27;;;4.93;;
69573;SDS011;62840;52.366;5.980;2024-01-06T00:57:19;9.30;;;3.83;;
69573;SDS011;62840;52.366;5.980;2024-01-06T00:59:45;10.07;;;4.30;;
69573;SDS011;62840;52.366;5.980;2024-01-06T01:02:11;10.97;;;4.90;;
69573;SDS011;62840;52.366;5.980;2024-01-06T01:04:37;11.55;;;5.15;;
69573;SDS011;62840;52.366;5.980;2024-01-06T01:07:05;11.33;;;5.40;;
69573;SDS011;62840;52.366;5.980;2024-01-06T01:09:31;12.40;;;5.38;;
69573;SDS011;62840;52.366;5.980;2024-01-06T01:11:57;11.50;;;4.97;;
69573;SDS011;62840;52.366;5.980;2024-01-06T01:14:23;10.90;;;4.87;;
69573;SDS011;62840;52.366;5.980;2024-01-06T01:16:49;13.60;;;5.80;;
69573;SDS011;62840;52.366;5.980;2024-01-06T01:19:15;13.52;;;5.65;;
69573;SDS011;62840;52.366;5.980;2024-01-06T01:21:40;13.03;;;5.60;;
69573;SDS011;62840;52.366;5.980;2024-01-06T01:24:09;13.00;;;5.30;;
69573;SDS011;62840;52.366;5.980;2024-01-06T01:26:35;12.77;;;5.68;;
69573;SDS011;62840;52.366;5.980;2024-01-06T01:29:01;14.20;;;6.40;;
69573;SDS011;62840;52.366;5.980;2024-01-06T01:31:26;12.60;;;5.70;;
69573;SDS011;62840;52.366;5.980;2024-01-06T01:33:52;14.30;;;6.13;;
69573;SDS011;62840;52.366;5.980;2024-01-06T01:36:18;13.18;;;5.78;;
69573;SDS011;62840;52.366;5.980;2024-01-06T01:38:44;13.30;;;6.13;;
69573;SDS011;62840;52.366;5.980;2024-01-06T01:41:12;12.73;;;4.97;;
69573;SDS011;62840;52.366;5.980;2024-01-06T01:43:38;13.13;;;5.68;;
69573;SDS011;62840;52.366;5.980;2024-01-06T01:46:04;11.40;;;5.32;;
69573;SDS011;62840;52.366;5.980;2024-01-06T01:48:30;11.83;;;5.10;;
69573;SDS011;62840;52.366;5.980;2024-01-06T01:50:57;13.57;;;5.90;;
69573;SDS011;62840;52.366;5.980;2024-01-06T01:53:23;13.65;;;6.10;;
69573;SDS011;62840;52.366;5.980;2024-01-06T01:55:49;14.35;;;5.97;;
69573;SDS011;62840;52.366;5.980;2024-01-06T01:58:18;13.23;;;5.37;;
69573;SDS011;62840;52.366;5.980;2024-01-06T02:00:45;13.07;;;5.20;;
69573;SDS011;62840;52.366;5.980;2024-01-06T02:03:11;14.60;;;6.40;;
69573;SDS011;62840;52.366;5.980;2024-01-06T02:05:38;15.27;;;6.50;;
69573;SDS011;62840;52.366;5.980;2024-01-06T02:08:05;14.30;;;6.22;;
69573;SDS011;62840;52.366;5.980;2024-01-06T02:10:31;14.60;;;6.37;;
69573;SDS011;62840;52.366;5.980;2024-01-06T02:12:57;16.95;;;6.18;;
69573;SDS011;62840;52.366;5.980;2024-01-06T02:15:35;14.23;;;6.88;;
69573;SDS011;62840;52.366;5.980;2024-01-06T02:18:01;17.67;;;6.63;;
69573;SDS011;62840;52.366;5.980;2024-01-06T02:20:27;16.13;;;6.60;;
69573;SDS011;62840;52.366;5.980;2024-01-06T02:22:58;13.43;;;5.80;;
69573;SDS011;62840;52.366;5.980;2024-01-06T02:25:24;13.07;;;6.15;;
69573;SDS011;62840;52.366;5.980;2024-01-06T02:27:50;17.55;;;6.20;;
69573;SDS011;62840;52.366;5.980;2024-01-06T02:30:16;13.93;;;6.10;;
69573;SDS011;62840;52.366;5.980;2024-01-06T02:32:42;16.27;;;7.27;;
69573;SDS011;62840;52.366;5.980;2024-01-06T02:35:08;15.90;;;6.55;;
69573;SDS011;62840;52.366;5.980;2024-01-06T02:37:34;15.00;;;6.07;;
69573;SDS011;62840;52.366;5.980;2024-01-06T02:40:03;15.23;;;6.47;;
69573;SDS011;62840;52.366;5.980;2024-01-06T02:42:30;15.82;;;6.45;;
69573;SDS011;62840;52.366;5.980;2024-01-06T02:44:56;16.25;;;6.53;;
69573;SDS011;62840;52.366;5.980;2024-01-06T02:47:22;16.00;;;6.60;;
69573;SDS011;62840;52.366;5.980;2024-01-06T02:49:47;17.55;;;7.00;;
69573;SDS011;62840;52.366;5.980;2024-01-06T02:52:13;17.20;;;6.90;;
69573;SDS011;62840;52.366;5.980;2024-01-06T02:54:39;13.83;;;6.53;;
69573;SDS011;62840;52.366;5.980;2024-01-06T02:57:08;15.68;;;6.75;;
69573;SDS011;62840;52.366;5.980;2024-01-06T02:59:33;16.20;;;6.22;;
69573;SDS011;62840;52.366;5.980;2024-01-06T03:01:59;17.20;;;6.53;;
69573;SDS011;62840;52.366;5.980;2024-01-06T03:04:27;14.02;;;6.30;;
69573;SDS011;62840;52.366;5.980;2024-01-06T03:06:52;14.68;;;5.97;;
69573;SDS011;62840;52.366;5.980;2024-01-06T03:09:18;13.80;;;5.90;;
69573;SDS011;62840;52.366;5.980;2024-01-06T03:11:44;15.18;;;6.18;;
69573;SDS011;62840;52.366;5.980;2024-01-06T03:14:13;13.32;;;5.43;;
69573;SDS011;62840;52.366;5.980;2024-01-06T03:16:39;12.53;;;5.40;;
69573;SDS011;62840;52.366;5.980;2024-01-06T03:19:04;14.65;;;5.60;;
69573;SDS011;62840;52.366;5.980;2024-01-06T03:21:31;13.23;;;5.25;;
69573;SDS011;62840;52.366;5.980;2024-01-06T03:23:57;12.07;;;5.40;;
69573;SDS011;62840;52.366;5.980;2024-01-06T03:26:22;13.50;;;5.22;;
69573;SDS011;62840;52.366;5.980;2024-01-06T03:28:49;13.27;;;5.20;;
69573;SDS011;62840;52.366;5.980;2024-01-06T03:31:17;16.17;;;5.97;;
69573;SDS011;62840;52.366;5.980;2024-01-06T03:33:43;11.88;;;4.72;;
69573;SDS011;62840;52.366;5.980;2024-01-06T03:36:09;13.05;;;5.13;;
69573;SDS011;62840;52.366;5.980;2024-01-06T03:38:38;12.85;;;5.53;;
69573;SDS011;62840;52.366;5.980;2024-01-06T03:41:04;12.23;;;5.57;;
69573;SDS011;62840;52.366;5.980;2024-01-06T03:43:29;13.27;;;5.80;;
69573;SDS011;62840;52.366;5.980;2024-01-06T03:45:55;12.82;;;5.03;;
69573;SDS011;62840;52.366;5.980;2024-01-06T03:48:24;13.73;;;5.40;;
69573;SDS011;62840;52.366;5.980;2024-01-06T03:50:50;13.13;;;5.65;;
69573;SDS011;62840;52.366;5.980;2024-01-06T03:53:15;12.35;;;5.53;;
69573;SDS011;62840;52.366;5.980;2024-01-06T03:55:41;10.70;;;4.20;;
69573;SDS011;62840;52.366;5.980;2024-01-06T03:58:07;11.32;;;4.65;;
69573;SDS011;62840;52.366;5.980;2024-01-06T04:00:33;13.38;;;5.65;;
69573;SDS011;62840;52.366;5.980;2024-01-06T04:02:59;12.07;;;4.50;;
69573;SDS011;62840;52.366;5.980;2024-01-06T04:05:27;10.77;;;4.70;;
69573;SDS011;62840;52.366;5.980;2024-01-06T04:07:53;11.07;;;4.63;;
69573;SDS011;62840;52.366;5.980;2024-01-06T04:10:19;11.13;;;4.70;;
69573;SDS011;62840;52.366;5.980;2024-01-06T04:12:46;11.05;;;4.82;;
69573;SDS011;62840;52.366;5.980;2024-01-06T04:15:11;11.02;;;4.60;;
69573;SDS011;62840;52.366;5.980;2024-01-06T04:17:37;10.10;;;4.37;;
69573;SDS011;62840;52.366;5.980;2024-01-06T04:20:04;11.18;;;4.43;;
69573;SDS011;62840;52.366;5.980;2024-01-06T04:22:33;10.63;;;4.78;;
69573;SDS011;62840;52.366;5.980;2024-01-06T04:24:59;11.97;;;5.20;;
69573;SDS011;62840;52.366;5.980;2024-01-06T04:27:25;10.52;;;4.55;;
69573;SDS011;62840;52.366;5.980;2024-01-06T04:29:51;11.10;;;4.47;;
69573;SDS011;62840;52.366;5.980;2024-01-06T04:32:17;11.07;;;4.87;;
69573;SDS011;62840;52.366;5.980;2024-01-06T04:34:43;11.40;;;5.13;;
69573;SDS011;62840;52.366;5.980;2024-01-06T04:37:09;10.57;;;4.63;;
69573;SDS011;62840;52.366;5.980;2024-01-06T04:39:37;12.70;;;4.80;;
69573;SDS011;62840;52.366;5.980;2024-01-06T04:42:03;10.73;;;5.05;;
69573;SDS011;62840;52.366;5.980;2024-01-06T04:44:30;11.50;;;4.90;;
69573;SDS011;62840;52.366;5.980;2024-01-06T04:46:56;12.73;;;5.30;;
69573;SDS011;62840;52.366;5.980;2024-01-06T04:49:22;12.23;;;5.03;;
69573;SDS011;62840;52.366;5.980;2024-01-06T04:51:47;14.07;;;5.45;;
69573;SDS011;62840;52.366;5.980;2024-01-06T04:54:13;12.47;;;5.50;;
69573;SDS011;62840;52.366;5.980;2024-01-06T04:56:42;11.98;;;4.70;;
69573;SDS011;62840;52.366;5.980;2024-01-06T04:59:08;12.63;;;5.35;;
69573;SDS011;62840;52.366;5.980;2024-01-06T05:01:34;12.20;;;5.22;;
69573;SDS011;62840;52.366;5.980;2024-01-06T05:04:00;13.00;;;4.88;;
69573;SDS011;62840;52.366;5.980;2024-01-06T05:06:25;12.30;;;5.00;;
69573;SDS011;62840;52.366;5.980;2024-01-06T05:08:51;10.48;;;4.55;;
69573;SDS011;62840;52.366;5.980;2024-01-06T05:11:17;12.17;;;4.47;;
69573;SDS011;62840;52.366;5.980;2024-01-06T05:13:46;12.20;;;4.90;;
69573;SDS011;62840;52.366;5.980;2024-01-06T05:16:12;11.55;;;5.00;;
69573;SDS011;62840;52.366;5.980;2024-01-06T05:18:38;11.40;;;4.78;;
69573;SDS011;62840;52.366;5.980;2024-01-06T05:21:04;11.10;;;5.03;;
69573;SDS011;62840;52.366;5.980;2024-01-06T05:23:30;10.48;;;4.75;;
69573;SDS011;62840;52.366;5.980;2024-01-06T05:25:55;12.38;;;5.18;;
69573;SDS011;62840;52.366;5.980;2024-01-06T05:28:21;12.55;;;5.32;;
69573;SDS011;62840;52.366;5.980;2024-01-06T05:30:50;11.35;;;4.93;;
69573;SDS011;62840;52.366;5.980;2024-01-06T05:33:16;11.60;;;5.13;;
69573;SDS011;62840;52.366;5.980;2024-01-06T05:35:42;11.77;;;4.80;;
69573;SDS011;62840;52.366;5.980;2024-01-06T05:38:07;11.38;;;4.60;;
69573;SDS011;62840;52.366;5.980;2024-01-06T05:40:33;13.82;;;5.50;;
69573;SDS011;62840;52.366;5.980;2024-01-06T05:42:59;11.83;;;5.17;;
69573;SDS011;62840;52.366;5.980;2024-01-06T05:45:25;14.93;;;5.40;;
69573;SDS011;62840;52.366;5.980;2024-01-06T05:47:54;12.50;;;5.70;;
69573;SDS011;62840;52.366;5.980;2024-01-06T05:50:19;11.77;;;5.37;;
69573;SDS011;62840;52.366;5.980;2024-01-06T05:52:45;11.38;;;5.15;;
69573;SDS011;62840;52.366;5.980;2024-01-06T05:55:11;14.88;;;5.50;;
69573;SDS011;62840;52.366;5.980;2024-01-06T05:57:37;13.47;;;5.53;;
69573;SDS011;62840;52.366;5.980;2024-01-06T06:00:04;13.90;;;5.78;;
69573;SDS011;62840;52.366;5.980;2024-01-06T06:02:34;13.80;;;5.10;;
69573;SDS011;62840;52.366;5.980;2024-01-06T06:05:03;12.18;;;5.60;;
69573;SDS011;62840;52.366;5.980;2024-01-06T06:07:29;13.43;;;5.95;;
69573;SDS011;62840;52.366;5.980;2024-01-06T06:09:55;11.15;;;5.85;;
69573;SDS011;62840;52.366;5.980;2024-01-06T06:12:21;9.80;;;4.72;;
69573;SDS011;62840;52.366;5.980;2024-01-06T06:14:47;12.60;;;5.23;;
69573;SDS011;62840;52.366;5.980;2024-01-06T06:17:13;11.75;;;5.25;;
69573;SDS011;62840;52.366;5.980;2024-01-06T06:19:39;12.23;;;4.95;;
69573;SDS011;62840;52.366;5.980;2024-01-06T06:22:07;12.68;;;5.25;;
69573;SDS011;62840;52.366;5.980;2024-01-06T06:24:33;11.98;;;5.25;;
69573;SDS011;62840;52.366;5.980;2024-01-06T06:26:59;11.80;;;5.18;;
69573;SDS011;62840;52.366;5.980;2024-01-06T06:29:25;12.13;;;5.05;;
69573;SDS011;62840;52.366;5.980;2024-01-06T06:31:51;12.60;;;5.55;;
69573;SDS011;62840;52.366;5.980;2024-01-06T06:34:16;12.03;;;4.83;;
69573;SDS011;62840;52.366;5.980;2024-01-06T06:36:42;11.25;;;5.05;;
69573;SDS011;62840;52.366;5.980;2024-01-06T06:39:11;11.63;;;5.50;;
69573;SDS011;62840;52.366;5.980;2024-01-06T06:41:37;12.98;;;5.63;;
69573;SDS011;62840;52.366;5.980;2024-01-06T06:44:03;11.68;;;5.40;;
69573;SDS011;62840;52.366;5.980;2024-01-06T06:46:29;11.75;;;4.85;;
69573;SDS011;62840;52.366;5.980;2024-01-06T06:48:55;12.13;;;4.80;;
69573;SDS011;62840;52.366;5.980;2024-01-06T06:51:21;12.30;;;5.25;;
69573;SDS011;62840;52.366;5.980;2024-01-06T06:53:46;12.90;;;5.10;;
69573;SDS011;62840;52.366;5.980;2024-01-06T06:56:15;13.00;;;5.00;;
69573;SDS011;62840;52.366;5.980;2024-01-06T06:58:41;13.27;;;4.82;;
69573;SDS011;62840;52.366;5.980;2024-01-06T07:01:07;13.93;;;5.05;;
69573;SDS011;62840;52.366;5.980;2024-01-06T07:03:33;12.23;;;5.27;;
69573;SDS011;62840;52.366;5.980;2024-01-06T07:05:58;11.52;;;5.30;;
69573;SDS011;62840;52.366;5.980;2024-01-06T07:08:24;14.48;;;5.40;;
69573;SDS011;62840;52.366;5.980;2024-01-06T07:10:50;14.15;;;5.78;;
69573;SDS011;62840;52.366;5.980;2024-01-06T07:13:19;13.27;;;5.40;;
69573;SDS011;62840;52.366;5.980;2024-01-06T07:15:44;12.53;;;5.70;;
69573;SDS011;62840;52.366;5.980;2024-01-06T07:18:10;13.27;;;5.20;;
69573;SDS011;62840;52.366;5.980;2024-01-06T07:20:36;11.93;;;5.65;;
69573;SDS011;62840;52.366;5.980;2024-01-06T07:23:02;11.47;;;4.93;;
69573;SDS011;62840;52.366;5.980;2024-01-06T07:25:28;12.35;;;4.88;;
69573;SDS011;62840;52.366;5.980;2024-01-06T07:27:54;12.73;;;5.30;;
69573;SDS011;62840;52.366;5.980;2024-01-06T07:30:23;14.20;;;5.90;;
69573;SDS011;62840;52.366;5.980;2024-01-06T07:32:48;13.63;;;5.68;;
69573;SDS011;62840;52.366;5.980;2024-01-06T07:35:14;12.55;;;5.05;;
69573;SDS011;62840;52.366;5.980;2024-01-06T07:37:40;14.63;;;5.83;;
69573;SDS011;62840;52.366;5.980;2024-01-06T07:40:06;14.32;;;5.32;;
69573;SDS011;62840;52.366;5.980;2024-01-06T07:42:33;14.00;;;5.43;;
69573;SDS011;62840;52.366;5.980;2024-01-06T07:44:59;15.23;;;5.27;;
69573;SDS011;62840;52.366;5.980;2024-01-06T07:47:28;13.73;;;5.75;;
69573;SDS011;62840;52.366;5.980;2024-01-06T07:49:54;16.55;;;5.43;;
69573;SDS011;62840;52.366;5.980;2024-01-06T07:52:19;12.48;;;5.53;;
69573;SDS011;62840;52.366;5.980;2024-01-06T07:54:45;12.45;;;5.07;;
69573;SDS011;62840;52.366;5.980;2024-01-06T07:57:11;14.38;;;5.75;;
69573;SDS011;62840;52.366;5.980;2024-01-06T07:59:37;13.03;;;5.87;;
69573;SDS011;62840;52.366;5.980;2024-01-06T08:02:03;17.65;;;6.75;;
69573;SDS011;62840;52.366;5.980;2024-01-06T08:04:32;16.25;;;6.28;;
69573;SDS011;62840;52.366;5.980;2024-01-06T08:06:58;14.73;;;6.13;;
69573;SDS011;62840;52.366;5.980;2024-01-06T08:09:23;13.00;;;6.07;;
69573;SDS011;62840;52.366;5.980;2024-01-06T08:11:49;14.95;;;6.80;;
69573;SDS011;62840;52.366;5.980;2024-01-06T08:14:15;14.23;;;6.47;;
69573;SDS011;62840;52.366;5.980;2024-01-06T08:16:41;13.75;;;5.95;;
69573;SDS011;62840;52.366;5.980;2024-01-06T08:19:07;12.70;;;6.18;;
69573;SDS011;62840;52.366;5.980;2024-01-06T08:21:36;13.50;;;5.90;;
69573;SDS011;62840;52.366;5.980;2024-01-06T08:24:02;13.60;;;5.90;;
69573;SDS011;62840;52.366;5.980;2024-01-06T08:26:28;12.93;;;5.60;;
69573;SDS011;62840;52.366;5.980;2024-01-06T08:28:54;15.35;;;5.97;;
69573;SDS011;62840;52.366;5.980;2024-01-06T08:31:20;13.60;;;6.33;;
69573;SDS011;62840;52.366;5.980;2024-01-06T08:33:46;13.85;;;6.07;;
69573;SDS011;62840;52.366;5.980;2024-01-06T08:36:12;14.40;;;5.78;;
69573;SDS011;62840;52.366;5.980;2024-01-06T08:38:41;12.88;;;5.38;;
69573;SDS011;62840;52.366;5.980;2024-01-06T08:41:07;13.67;;;5.43;;
69573;SDS011;62840;52.366;5.980;2024-01-06T08:43:32;13.68;;;5.55;;
69573;SDS011;62840;52.366;5.980;2024-01-06T08:45:58;14.35;;;6.30;;
69573;SDS011;62840;52.366;5.980;2024-01-06T08:48:24;13.73;;;5.77;;
69573;SDS011;62840;52.366;5.980;2024-01-06T08:50:50;13.07;;;5.68;;
69573;SDS011;62840;52.366;5.980;2024-01-06T08:53:16;13.07;;;5.80;;
69573;SDS011;62840;52.366;5.980;2024-01-06T08:55:45;13.90;;;6.20;;
69573;SDS011;62840;52.366;5.980;2024-01-06T08:58:11;13.07;;;5.27;;
69573;SDS011;62840;52.366;5.980;2024-01-06T09:00:37;13.25;;;5.40;;
69573;SDS011;62840;52.366;5.980;2024-01-06T09:03:03;11.57;;;5.15;;
69573;SDS011;62840;52.366;5.980;2024-01-06T09:05:29;12.97;;;5.70;;
69573;SDS011;62840;52.366;5.980;2024-01-06T09:07:55;12.15;;;5.63;;
69573;SDS011;62840;52.366;5.980;2024-01-06T09:10:21;12.68;;;5.88;;
69573;SDS011;62840;52.366;5.980;2024-01-06T09:12:49;13.13;;;6.03;;
69573;SDS011;62840;52.366;5.980;2024-01-06T09:15:15;11.90;;;5.35;;
69573;SDS011;62840;52.366;5.980;2024-01-06T09:17:41;13.77;;;5.65;;
69573;SDS011;62840;52.366;5.980;2024-01-06T09:20:07;12.43;;;5.43;;
69573;SDS011;62840;52.366;5.980;2024-01-06T09:22:34;13.88;;;5.28;;
69573;SDS011;62840;52.366;5.980;2024-01-06T09:25:00;14.60;;;5.63;;
69573;SDS011;62840;52.366;5.980;2024-01-06T09:27:26;14.43;;;5.88;;
69573;SDS011;62840;52.366;5.980;2024-01-06T09:29:54;12.80;;;5.50;;
69573;SDS011;62840;52.366;5.980;2024-01-06T09:32:21;10.85;;;5.13;;
69573;SDS011;62840;52.366;5.980;2024-01-06T09:34:47;10.73;;;4.63;;
69573;SDS011;62840;52.366;5.980;2024-01-06T09:37:13;10.40;;;4.80;;
69573;SDS011;62840;52.366;5.980;2024-01-06T09:39:39;12.93;;;5.55;;
69573;SDS011;62840;52.366;5.980;2024-01-06T09:42:05;10.73;;;5.07;;
69573;SDS011;62840;52.366;5.980;2024-01-06T09:44:31;10.93;;;4.72;;
69573;SDS011;62840;52.366;5.980;2024-01-06T09:47:00;10.90;;;4.85;;
69573;SDS011;62840;52.366;5.980;2024-01-06T09:49:28;9.35;;;4.63;;
69573;SDS011;62840;52.366;5.980;2024-01-06T09:51:59;13.38;;;5.45;;
69573;SDS011;62840;52.366;5.980;2024-01-06T09:54:29;11.90;;;4.83;;
69573;SDS011;62840;52.366;5.980;2024-01-06T09:56:59;10.60;;;4.70;;
69573;SDS011;62840;52.366;5.980;2024-01-06T09:59:28;10.27;;;5.15;;
69573;SDS011;62840;52.366;5.980;2024-01-06T10:01:55;10.65;;;4.43;;
69573;SDS011;62840;52.366;5.980;2024-01-06T10:04:26;9.95;;;4.43;;
69573;SDS011;62840;52.366;5.980;2024-01-06T10:06:51;9.73;;;4.47;;
69573;SDS011;62840;52.366;5.980;2024-01-06T10:09:17;10.70;;;5.32;;
69573;SDS011;62840;52.366;5.980;2024-01-06T10:11:52;9.18;;;4.45;;
69573;SDS011;62840;52.366;5.980;2024-01-06T10:14:20;11.20;;;4.70;;
69573;SDS011;62840;52.366;5.980;2024-01-06T10:16:46;10.88;;;4.80;;
69573;SDS011;62840;52.366;5.980;2024-01-06T10:19:15;9.05;;;4.25;;
69573;SDS011;62840;52.366;5.980;2024-01-06T10:21:41;10.00;;;4.60;;
69573;SDS011;62840;52.366;5.980;2024-01-06T10:24:07;9.07;;;4.27;;
69573;SDS011;62840;52.366;5.980;2024-01-06T10:26:33;11.85;;;5.18;;
69573;SDS011;62840;52.366;5.980;2024-01-06T10:29:00;12.80;;;4.95;;
69573;SDS011;62840;52.366;5.980;2024-01-06T10:31:25;9.30;;;4.75;;
69573;SDS011;62840;52.366;5.980;2024-01-06T10:33:51;10.77;;;4.50;;
69573;SDS011;62840;52.366;5.980;2024-01-06T10:36:20;10.05;;;4.45;;
69573;SDS011;62840;52.366;5.980;2024-01-06T10:38:48;10.85;;;4.60;;
69573;SDS011;62840;52.366;5.980;2024-01-06T10:41:14;10.60;;;4.90;;
69573;SDS011;62840;52.366;5.980;2024-01-06T10:43:42;9.83;;;4.37;;
69573;SDS011;62840;52.366;5.980;2024-01-06T10:46:09;10.13;;;5.18;;
69573;SDS011;62840;52.366;5.980;2024-01-06T10:48:35;12.93;;;5.28;;
69573;SDS011;62840;52.366;5.980;2024-01-06T10:51:03;10.63;;;4.88;;
69573;SDS011;62840;52.366;5.980;2024-01-06T10:53:32;9.05;;;4.28;;
69573;SDS011;62840;52.366;5.980;2024-01-06T10:55:58;12.43;;;5.00;;
69573;SDS011;62840;52.366;5.980;2024-01-06T10:58:26;9.15;;;4.88;;
69573;SDS011;62840;52.366;5.980;2024-01-06T11:00:55;11.68;;;5.10;;
69573;SDS011;62840;52.366;5.980;2024-01-06T11:03:21;9.02;;;4.40;;
69573;SDS011;62840;52.366;5.980;2024-01-06T11:05:49;9.30;;;4.40;;
69573;SDS011;62840;52.366;5.980;2024-01-06T11:08:15;9.20;;;4.30;;
69573;SDS011;62840;52.366;5.980;2024-01-06T11:10:46;10.38;;;5.00;;
69573;SDS011;62840;52.366;5.980;2024-01-06T11:13:14;13.55;;;5.10;;
69573;SDS011;62840;52.366;5.980;2024-01-06T11:15:46;11.25;;;5.35;;
69573;SDS011;62840;52.366;5.980;2024-01-06T11:23:46;11.68;;;5.15;;
69573;SDS011;62840;52.366;5.980;2024-01-06T11:26:31;10.82;;;5.60;;
69573;SDS011;62840;52.366;5.980;2024-01-06T11:28:57;11.48;;;5.40;;
69573;SDS011;62840;52.366;5.980;2024-01-06T11:31:28;13.27;;;5.63;;
69573;SDS011;62840;52.366;5.980;2024-01-06T11:33:55;12.18;;;5.13;;
69573;SDS011;62840;52.366;5.980;2024-01-06T11:36:21;13.05;;;5.28;;
69573;SDS011;62840;52.366;5.980;2024-01-06T11:38:47;11.83;;;5.23;;
69573;SDS011;62840;52.366;5.980;2024-01-06T11:41:44;11.13;;;5.15;;
69573;SDS011;62840;52.366;5.980;2024-01-06T11:44:18;12.52;;;6.20;;
69573;SDS011;62840;52.366;5.980;2024-01-06T11:46:45;14.48;;;5.75;;
69573;SDS011;62840;52.366;5.980;2024-01-06T11:49:14;13.50;;;5.70;;
69573;SDS011;62840;52.366;5.980;2024-01-06T11:51:40;13.00;;;5.95;;
69573;SDS011;62840;52.366;5.980;2024-01-06T11:54:07;15.27;;;5.80;;
69573;SDS011;62840;52.366;5.980;2024-01-06T11:56:35;13.23;;;5.68;;
69573;SDS011;62840;52.366;5.980;2024-01-06T11:59:03;12.73;;;6.50;;
69573;SDS011;62840;52.366;5.980;2024-01-06T12:01:35;14.10;;;5.67;;
69573;SDS011;62840;52.366;5.980;2024-01-06T12:04:02;13.90;;;5.75;;
69573;SDS011;62840;52.366;5.980;2024-01-06T12:06:28;14.43;;;6.07;;
69573;SDS011;62840;52.366;5.980;2024-01-06T12:09:02;11.75;;;5.18;;
69573;SDS011;62840;52.366;5.980;2024-01-06T12:11:29;12.50;;;6.27;;
69573;SDS011;62840;52.366;5.980;2024-01-06T12:13:55;12.85;;;6.30;;
69573;SDS011;62840;52.366;5.980;2024-01-06T12:16:24;14.63;;;6.57;;
69573;SDS011;62840;52.366;5.980;2024-01-06T12:18:50;12.95;;;5.95;;
69573;SDS011;62840;52.366;5.980;2024-01-06T12:21:16;14.17;;;6.07;;
69573;SDS011;62840;52.366;5.980;2024-01-06T12:23:42;13.40;;;5.90;;
69573;SDS011;62840;52.366;5.980;2024-01-06T12:26:08;15.90;;;6.68;;
69573;SDS011;62840;52.366;5.980;2024-01-06T12:28:35;12.83;;;6.07;;
69573;SDS011;62840;52.366;5.980;2024-01-06T12:31:03;12.13;;;5.97;;
69573;SDS011;62840;52.366;5.980;2024-01-06T12:33:32;12.60;;;5.63;;
69573;SDS011;62840;52.366;5.980;2024-01-06T12:35:58;13.68;;;6.20;;
69573;SDS011;62840;52.366;5.980;2024-01-06T12:38:24;12.93;;;5.68;;
69573;SDS011;62840;52.366;5.980;2024-01-06T12:40:50;13.20;;;6.00;;
69573;SDS011;62840;52.366;5.980;2024-01-06T12:43:16;13.52;;;6.00;;
69573;SDS011;62840;52.366;5.980;2024-01-06T12:45:42;13.57;;;5.95;;
69573;SDS011;62840;52.366;5.980;2024-01-06T12:48:08;13.43;;;5.60;;
69573;SDS011;62840;52.366;5.980;2024-01-06T12:50:36;15.25;;;5.95;;
69573;SDS011;62840;52.366;5.980;2024-01-06T12:53:02;13.30;;;6.18;;
69573;SDS011;62840;52.366;5.980;2024-01-06T12:55:28;13.70;;;5.73;;
69573;SDS011;62840;52.366;5.980;2024-01-06T12:57:54;12.88;;;6.00;;
69573;SDS011;62840;52.366;5.980;2024-01-06T13:00:20;14.05;;;6.47;;
69573;SDS011;62840;52.366;5.980;2024-01-06T13:02:46;12.70;;;6.00;;
69573;SDS011;62840;52.366;5.980;2024-01-06T13:05:12;14.13;;;6.30;;
69573;SDS011;62840;52.366;5.980;2024-01-06T13:07:41;13.73;;;5.72;;
69573;SDS011;62840;52.366;5.980;2024-01-06T13:10:07;12.70;;;6.13;;
69573;SDS011;62840;52.366;5.980;2024-01-06T13:12:34;13.50;;;5.87;;
69573;SDS011;62840;52.366;5.980;2024-01-06T13:15:00;13.00;;;5.55;;
69573;SDS011;62840;52.366;5.980;2024-01-06T13:17:25;13.30;;;5.65;;
69573;SDS011;62840;52.366;5.980;2024-01-06T13:19:51;14.23;;;5.50;;
69573;SDS011;62840;52.366;5.980;2024-01-06T13:22:17;12.90;;;5.95;;
69573;SDS011;62840;52.366;5.980;2024-01-06T13:24:46;15.05;;;6.38;;
69573;SDS011;62840;52.366;5.980;2024-01-06T13:27:12;14.93;;;5.93;;
69573;SDS011;62840;52.366;5.980;2024-01-06T13:29:38;12.43;;;5.65;;
69573;SDS011;62840;52.366;5.980;2024-01-06T13:32:04;11.93;;;5.38;;
69573;SDS011;62840;52.366;5.980;2024-01-06T13:34:30;12.20;;;5.83;;
69573;SDS011;62840;52.366;5.980;2024-01-06T13:36:56;11.95;;;5.10;;
69573;SDS011;62840;52.366;5.980;2024-01-06T13:39:22;12.23;;;5.32;;
69573;SDS011;62840;52.366;5.980;2024-01-06T13:41:51;12.25;;;6.07;;
69573;SDS011;62840;52.366;5.980;2024-01-06T13:44:17;13.63;;;5.70;;
69573;SDS011;62840;52.366;5.980;2024-01-06T13:46:43;14.00;;;5.97;;
69573;SDS011;62840;52.366;5.980;2024-01-06T13:49:08;12.45;;;5.53;;
69573;SDS011;62840;52.366;5.980;2024-01-06T13:51:34;13.80;;;5.77;;
69573;SDS011;62840;52.366;5.980;2024-01-06T13:54:00;15.15;;;6.10;;
69573;SDS011;62840;52.366;5.980;2024-01-06T13:56:26;13.43;;;6.00;;
69573;SDS011;62840;52.366;5.980;2024-01-06T13:58:55;13.47;;;6.10;;
69573;SDS011;62840;52.366;5.980;2024-01-06T14:01:21;13.40;;;6.30;;
69573;SDS011;62840;52.366;5.980;2024-01-06T14:03:46;12.70;;;5.75;;
69573;SDS011;62840;52.366;5.980;2024-01-06T14:06:12;14.02;;;6.07;;
69573;SDS011;62840;52.366;5.980;2024-01-06T14:08:38;11.83;;;5.70;;
69573;SDS011;62840;52.366;5.980;2024-01-06T14:11:04;12.85;;;6.13;;
69573;SDS011;62840;52.366;5.980;2024-01-06T14:13:30;12.75;;;6.22;;
69573;SDS011;62840;52.366;5.980;2024-01-06T14:15:58;12.90;;;6.22;;
69573;SDS011;62840;52.366;5.980;2024-01-06T14:18:24;13.02;;;6.05;;
69573;SDS011;62840;52.366;5.980;2024-01-06T14:20:50;12.90;;;5.50;;
69573;SDS011;62840;52.366;5.980;2024-01-06T14:23:16;12.57;;;5.40;;
69573;SDS011;62840;52.366;5.980;2024-01-06T14:25:42;14.40;;;5.90;;
69573;SDS011;62840;52.366;5.980;2024-01-06T14:28:08;13.27;;;6.00;;
69573;SDS011;62840;52.366;5.980;2024-01-06T14:30:34;12.65;;;5.50;;
69573;SDS011;62840;52.366;5.980;2024-01-06T14:33:02;13.45;;;6.07;;
69573;SDS011;62840;52.366;5.980;2024-01-06T14:35:28;12.83;;;6.00;;
69573;SDS011;62840;52.366;5.980;2024-01-06T14:37:54;11.95;;;5.15;;